Time;durP1;ratioP1;P1;durP2;ratioP2;P2;SDS_P1;SDS_P2;PMS_P1;PMS_P2;Temp;Humidity;BMP_temperature;BMP_pressure;BME280_temperature;BME280_humidity;BME280_pressure;Samples;Min_cycle;Max_cycle;Signal;HPM_P1;HPM_P2
2023/12/16 08:49:12;;;;;;;4.97;1.20;;;9.50;99.90;;;;;;4747759;27;20281;-73
2023/12/16 08:51:39;;;;;;;6.10;1.30;;;9.60;99.90;;;;;;4919002;29;20277;-73
2023/12/16 08:54:06;;;;;;;9.93;0.90;;;9.70;99.90;;;;;;4918903;29;20277;-72
2023/12/16 08:56:32;;;;;;;6.43;1.60;;;9.80;99.90;;;;;;4919093;29;20264;-72
2023/12/16 08:58:59;;;;;;;6.10;1.10;;;9.70;99.90;;;;;;4919073;29;20214;-74
2023/12/16 09:01:27;;;;;;;5.13;0.97;;;9.70;99.90;;;;;;4918697;29;20210;-73
2023/12/16 09:03:54;;;;;;;4.20;1.13;;;9.80;99.90;;;;;;4898817;29;20230;-73
2023/12/16 09:06:24;;;;;;;3.07;1.03;;;9.70;99.90;;;;;;4899615;29;20689;-73
2023/12/16 09:08:51;;;;;;;4.80;1.20;;;9.80;99.90;;;;;;4899877;29;20198;-72
2023/12/16 09:11:18;;;;;;;3.70;2.10;;;9.80;99.90;;;;;;4899807;29;20661;-72
2023/12/16 09:13:45;;;;;;;5.17;1.27;;;9.80;99.90;;;;;;4899737;29;20210;-72
2023/12/16 09:16:12;;;;;;;2.73;1.10;;;9.90;99.90;;;;;;4899545;29;20595;-72
2023/12/16 09:18:39;;;;;;;6.50;1.00;;;9.90;99.90;;;;;;4899824;29;20210;-70
2023/12/16 09:21:06;;;;;;;4.33;1.27;;;9.90;99.90;;;;;;4899503;29;20211;-73
2023/12/16 09:23:36;;;;;;;3.53;1.03;;;9.90;99.90;;;;;;4898809;29;20265;-73
2023/12/16 09:26:04;;;;;;;5.77;1.57;;;9.90;99.90;;;;;;4899686;29;20708;-72
2023/12/16 09:28:31;;;;;;;6.40;1.10;;;9.80;99.90;;;;;;4899905;29;20214;-75
2023/12/16 09:30:58;;;;;;;4.07;0.93;;;9.90;99.90;;;;;;4899714;29;20230;-71
2023/12/16 09:33:25;;;;;;;5.03;1.30;;;10.00;99.90;;;;;;4899736;29;20722;-73
2023/12/16 09:35:52;;;;;;;7.03;1.20;;;10.10;99.90;;;;;;4898393;29;20291;-71
2023/12/16 09:38:19;;;;;;;4.90;1.13;;;10.20;99.90;;;;;;4894464;29;20307;-70
2023/12/16 09:40:47;;;;;;;6.17;1.27;;;10.10;99.90;;;;;;4897984;29;20574;-74
2023/12/16 09:43:17;;;;;;;6.90;0.93;;;10.20;99.90;;;;;;4897676;29;20198;-70
2023/12/16 09:45:47;;;;;;;4.33;1.00;;;10.30;99.90;;;;;;4912743;29;20224;-69
2023/12/16 09:48:17;;;;;;;9.73;1.00;;;10.30;99.90;;;;;;4912852;29;20222;-72
2023/12/16 09:50:44;;;;;;;4.07;1.00;;;10.30;99.90;;;;;;4899127;29;20269;-72
2023/12/16 09:53:12;;;;;;;5.83;0.90;;;10.30;99.90;;;;;;4898912;29;20206;-72
2023/12/16 09:55:40;;;;;;;3.83;0.70;;;10.30;99.90;;;;;;4899194;29;20298;-72
2023/12/16 09:58:11;;;;;;;2.50;0.97;;;10.30;99.90;;;;;;4910952;29;20206;-70
2023/12/16 10:00:45;;;;;;;2.93;0.93;;;10.40;99.90;;;;;;4895875;29;20206;-71
2023/12/16 10:03:14;;;;;;;5.73;1.83;;;10.40;99.90;;;;;;4895734;29;20214;-74
2023/12/16 10:05:42;;;;;;;5.40;1.27;;;10.40;99.90;;;;;;4898835;29;20246;-72
2023/12/16 10:08:09;;;;;;;5.47;1.00;;;10.50;99.90;;;;;;4909922;29;20241;-71
2023/12/16 10:10:36;;;;;;;3.10;1.30;;;10.60;99.90;;;;;;4898560;29;20218;-72
2023/12/16 10:13:04;;;;;;;6.97;1.80;;;10.60;99.90;;;;;;4899025;29;20677;-72
2023/12/16 10:15:36;;;;;;;4.20;1.10;;;10.70;99.90;;;;;;4879699;29;20742;-71
2023/12/16 10:18:04;;;;;;;4.73;1.23;;;10.60;99.90;;;;;;4880116;29;20770;-72
2023/12/16 10:20:32;;;;;;;5.57;1.57;;;10.60;99.90;;;;;;4910185;29;20202;-71
2023/12/16 10:23:01;;;;;;;6.57;1.37;;;10.60;99.90;;;;;;4898248;29;20708;-71
2023/12/16 10:25:28;;;;;;;8.47;1.57;;;10.60;99.90;;;;;;4898266;29;20253;-72
2023/12/16 10:28:00;;;;;;;9.07;1.00;;;10.60;99.90;;;;;;4898027;29;20286;-74
2023/12/16 10:30:27;;;;;;;3.33;0.90;;;10.70;99.90;;;;;;4897714;29;20238;-71
2023/12/16 10:32:56;;;;;;;3.00;0.80;;;10.70;99.90;;;;;;4898488;29;20210;-71
2023/12/16 10:35:24;;;;;;;9.53;1.30;;;10.60;99.90;;;;;;4898562;29;20320;-72
2023/12/16 10:37:52;;;;;;;4.33;0.80;;;10.70;99.90;;;;;;4898734;29;20213;-72
2023/12/16 10:40:19;;;;;;;2.93;1.20;;;10.70;99.90;;;;;;4882141;29;20721;-72
2023/12/16 10:42:46;;;;;;;5.53;1.00;;;10.80;99.90;;;;;;4896419;29;20302;-71
2023/12/16 10:45:13;;;;;;;5.20;1.00;;;10.80;99.90;;;;;;4898517;29;20269;-71
2023/12/16 10:47:41;;;;;;;2.40;1.00;;;10.80;99.90;;;;;;4897333;29;20684;-76
2023/12/16 10:50:12;;;;;;;8.47;1.10;;;10.80;99.90;;;;;;4896865;29;20214;-73
2023/12/16 10:52:41;;;;;;;4.73;1.10;;;10.80;99.90;;;;;;4896581;29;20250;-73
2023/12/16 10:55:14;;;;;;;7.00;0.90;;;10.80;99.90;;;;;;4896386;29;20359;-72
2023/12/16 10:57:48;;;;;;;4.30;1.10;;;10.90;99.90;;;;;;4878763;29;20210;-71
2023/12/16 11:00:21;;;;;;;4.50;0.90;;;11.00;99.90;;;;;;4894234;29;20246;-72
2023/12/16 11:02:59;;;;;;;4.47;1.30;;;10.90;99.90;;;;;;4896150;29;20257;-73
2023/12/16 11:05:32;;;;;;;4.60;1.17;;;11.00;99.90;;;;;;4896927;29;20305;-73
2023/12/16 11:08:02;;;;;;;6.03;1.30;;;11.00;99.90;;;;;;4896668;29;20413;-73
2023/12/16 11:10:30;;;;;;;6.67;2.60;;;11.00;99.90;;;;;;4898041;29;20210;-72
2023/12/16 11:12:58;;;;;;;5.30;1.20;;;10.70;99.90;;;;;;4897604;29;20218;-72
2023/12/16 11:15:26;;;;;;;8.40;1.80;;;10.80;99.90;;;;;;4897843;29;20230;-73
2023/12/16 11:17:58;;;;;;;3.63;0.87;;;10.80;99.90;;;;;;4897886;29;20210;-72
2023/12/16 11:20:33;;;;;;;4.63;1.50;;;10.90;99.90;;;;;;4897829;29;20257;-73
2023/12/16 11:23:00;;;;;;;4.37;1.03;;;11.00;99.90;;;;;;4897781;29;20217;-73
2023/12/16 11:25:27;;;;;;;3.57;1.20;;;11.10;99.90;;;;;;4897519;29;20761;-73
2023/12/16 11:27:57;;;;;;;4.03;1.10;;;11.00;99.90;;;;;;4891839;29;20286;-72
2023/12/16 11:30:24;;;;;;;5.37;1.40;;;10.90;99.90;;;;;;4881253;29;20265;-73
2023/12/16 11:32:55;;;;;;;3.80;1.00;;;10.90;99.90;;;;;;4889309;29;20241;-73
2023/12/16 11:35:52;;;;;;;6.93;1.70;;;11.00;99.90;;;;;;4888404;29;20223;-73
2023/12/16 11:38:36;;;;;;;4.90;1.50;;;10.90;99.90;;;;;;4889440;29;20217;-73
2023/12/16 11:41:03;;;;;;;5.50;1.53;;;10.90;99.90;;;;;;4884206;29;20211;-73
2023/12/16 11:43:49;;;;;;;4.10;1.43;;;10.80;99.90;;;;;;4878490;29;20242;-73
2023/12/16 11:46:37;;;;;;;8.63;1.50;;;10.90;99.90;;;;;;4881218;29;20207;-73
2023/12/16 11:49:07;;;;;;;5.70;1.33;;;10.90;99.90;;;;;;4903598;29;20642;-73
2023/12/16 11:51:37;;;;;;;4.27;1.60;;;10.90;99.90;;;;;;4916308;29;20217;-73
2023/12/16 11:54:04;;;;;;;4.70;1.90;;;10.70;99.90;;;;;;4897551;29;20265;-72
2023/12/16 11:56:33;;;;;;;6.40;1.27;;;10.70;99.90;;;;;;4890712;29;20278;-73
2023/12/16 11:59:00;;;;;;;10.43;1.93;;;10.80;99.90;;;;;;4878407;29;20263;-73
2023/12/16 12:01:27;;;;;;;6.13;1.77;;;10.70;99.90;;;;;;4884940;29;20229;-72
2023/12/16 12:03:55;;;;;;;5.80;1.53;;;10.70;99.90;;;;;;4919871;29;20291;-73
2023/12/16 12:06:22;;;;;;;7.73;2.03;;;10.80;99.90;;;;;;4903625;29;20214;-73
2023/12/16 12:08:51;;;;;;;4.77;1.87;;;10.70;99.90;;;;;;4907883;29;20225;-72
2023/12/16 12:11:20;;;;;;;8.43;1.43;;;10.80;99.90;;;;;;4905329;29;20293;-73
2023/12/16 12:13:47;;;;;;;6.87;2.00;;;10.70;99.90;;;;;;4900828;29;20211;-73
2023/12/16 12:16:14;;;;;;;3.73;1.63;;;10.70;99.90;;;;;;4900979;29;20214;-74
2023/12/16 12:18:42;;;;;;;6.30;1.80;;;10.80;99.90;;;;;;4894936;29;20210;-73
2023/12/16 12:21:10;;;;;;;7.63;2.07;;;11.00;99.90;;;;;;4891462;29;20215;-73
2023/12/16 12:23:38;;;;;;;7.30;2.03;;;10.90;99.90;;;;;;4891163;29;20226;-73
2023/12/16 12:26:07;;;;;;;4.80;1.83;;;10.90;99.90;;;;;;4883900;29;20247;-73
2023/12/16 12:28:34;;;;;;;6.93;1.50;;;10.80;99.90;;;;;;4889902;29;20285;-74
2023/12/16 12:31:03;;;;;;;6.53;1.70;;;10.80;99.90;;;;;;4889395;29;20211;-74
2023/12/16 12:33:30;;;;;;;7.30;1.87;;;10.90;99.90;;;;;;4895578;29;20610;-73
2023/12/16 12:35:57;;;;;;;10.23;2.13;;;10.80;99.90;;;;;;4900508;29;20262;-73
2023/12/16 12:38:24;;;;;;;3.77;1.67;;;10.90;99.90;;;;;;4899760;29;20211;-73
2023/12/16 12:40:59;;;;;;;5.83;1.90;;;10.90;99.90;;;;;;4898859;29;20245;-73
2023/12/16 12:43:32;;;;;;;6.40;1.70;;;11.00;99.90;;;;;;4898189;29;20214;-74
2023/12/16 12:46:07;;;;;;;5.73;1.73;;;11.10;99.90;;;;;;4899483;29;20324;-73
2023/12/16 12:48:34;;;;;;;5.10;1.50;;;10.90;99.90;;;;;;4899469;29;20861;-73
2023/12/16 12:51:07;;;;;;;7.23;2.43;;;11.00;99.90;;;;;;4883867;29;20207;-74
2023/12/16 12:53:35;;;;;;;9.83;2.17;;;10.90;99.90;;;;;;4880986;29;20246;-73
2023/12/16 12:56:03;;;;;;;6.13;1.80;;;10.80;99.90;;;;;;4888340;29;20215;-74
2023/12/16 12:58:33;;;;;;;7.93;1.73;;;10.80;99.90;;;;;;4881154;29;20267;-73
2023/12/16 13:01:01;;;;;;;11.10;2.33;;;10.80;99.90;;;;;;4884075;29;20211;-73
2023/12/16 13:03:28;;;;;;;4.27;2.10;;;10.70;99.90;;;;;;4892521;29;20218;-73
2023/12/16 13:05:55;;;;;;;4.33;2.20;;;10.70;99.90;;;;;;4881026;29;20737;-74
2023/12/16 13:08:22;;;;;;;9.27;2.47;;;10.70;99.90;;;;;;4887529;29;20258;-74
2023/12/16 13:10:51;;;;;;;7.37;1.77;;;10.60;99.90;;;;;;4884020;29;20548;-74
2023/12/16 13:13:19;;;;;;;7.10;1.97;;;10.60;99.90;;;;;;4894039;29;20221;-73
2023/12/16 13:15:48;;;;;;;10.23;2.00;;;10.50;99.90;;;;;;4897347;29;20693;-74
2023/12/16 13:18:15;;;;;;;4.43;1.40;;;10.60;99.90;;;;;;4882402;29;20566;-74
2023/12/16 13:20:44;;;;;;;7.63;2.00;;;10.60;99.90;;;;;;4889226;29;20211;-74
2023/12/16 13:23:11;;;;;;;7.30;2.47;;;10.50;99.90;;;;;;4881866;29;20552;-74
2023/12/16 13:25:38;;;;;;;5.77;2.30;;;10.60;99.90;;;;;;4880367;29;20732;-73
2023/12/16 13:28:05;;;;;;;7.13;2.00;;;10.60;99.90;;;;;;4881056;29;20310;-74
2023/12/16 13:30:33;;;;;;;5.87;1.70;;;10.60;99.90;;;;;;4881056;29;20272;-73
2023/12/16 13:33:02;;;;;;;5.37;1.53;;;10.60;99.90;;;;;;4885230;29;20226;-73
2023/12/16 13:35:30;;;;;;;4.70;2.03;;;10.50;99.90;;;;;;4884829;29;20234;-73
2023/12/16 13:37:57;;;;;;;8.40;2.53;;;10.60;99.90;;;;;;4883471;29;20349;-73
2023/12/16 13:40:24;;;;;;;8.07;2.00;;;10.70;99.90;;;;;;4882636;29;20231;-73
2023/12/16 13:42:51;;;;;;;8.30;2.77;;;10.80;99.90;;;;;;4892157;29;20215;-73
2023/12/16 13:45:18;;;;;;;8.27;2.07;;;10.80;99.90;;;;;;4899145;29;20246;-73
2023/12/16 13:47:45;;;;;;;4.83;1.50;;;10.80;99.90;;;;;;4899049;29;20218;-74
2023/12/16 13:50:14;;;;;;;4.80;1.80;;;10.80;99.90;;;;;;4899358;29;20298;-74
2023/12/16 13:52:40;;;;;;;8.53;2.33;;;10.70;99.90;;;;;;4897096;29;20210;-73
2023/12/16 13:55:08;;;;;;;4.67;1.83;;;10.60;99.90;;;;;;4880349;29;20285;-73
2023/12/16 13:57:35;;;;;;;7.63;1.70;;;10.60;99.90;;;;;;4880307;29;20683;-74
2023/12/16 14:00:02;;;;;;;5.97;1.57;;;10.50;99.90;;;;;;4886798;29;20689;-74
2023/12/16 14:02:29;;;;;;;5.03;1.17;;;10.50;99.90;;;;;;4884847;29;20267;-74
2023/12/16 14:04:56;;;;;;;4.50;1.70;;;10.50;99.90;;;;;;4880425;29;20440;-73
2023/12/16 14:07:25;;;;;;;5.47;2.40;;;10.40;99.90;;;;;;4879340;29;20289;-74
2023/12/16 14:09:51;;;;;;;10.67;2.53;;;10.40;99.90;;;;;;4879716;29;20207;-74
2023/12/16 14:12:18;;;;;;;4.37;1.60;;;10.40;99.90;;;;;;4880493;29;20290;-73
2023/12/16 14:14:45;;;;;;;7.60;1.97;;;10.40;99.90;;;;;;4886917;29;20230;-73
2023/12/16 14:17:13;;;;;;;3.30;1.20;;;10.30;99.90;;;;;;4882400;29;20686;-73
2023/12/16 14:19:41;;;;;;;10.43;1.80;;;10.30;99.90;;;;;;4887617;29;20211;-74
2023/12/16 14:22:08;;;;;;;9.17;1.63;;;10.30;99.90;;;;;;4883554;29;20560;-74
2023/12/16 14:24:36;;;;;;;4.73;1.40;;;10.30;99.90;;;;;;4879090;29;20290;-74
2023/12/16 14:27:03;;;;;;;8.20;1.40;;;10.20;99.90;;;;;;4879562;29;20748;-73
2023/12/16 14:29:30;;;;;;;8.67;1.80;;;10.30;99.90;;;;;;4879429;29;20222;-73
2023/12/16 14:31:57;;;;;;;5.27;1.60;;;10.40;99.90;;;;;;4880698;29;20210;-74
2023/12/16 14:34:24;;;;;;;5.27;1.90;;;10.40;99.90;;;;;;4887191;29;20291;-73
2023/12/16 14:36:51;;;;;;;6.57;1.70;;;10.50;99.90;;;;;;4889376;29;20246;-74
2023/12/16 14:39:18;;;;;;;8.33;1.30;;;10.50;99.90;;;;;;4883038;29;20211;-73
2023/12/16 14:41:47;;;;;;;6.00;1.40;;;10.40;99.90;;;;;;4886726;29;20215;-73
2023/12/16 14:44:14;;;;;;;5.83;1.83;;;10.40;99.90;;;;;;4881355;29;21270;-73
2023/12/16 14:46:41;;;;;;;7.10;1.77;;;10.40;99.90;;;;;;4885932;29;20245;-73
2023/12/16 14:49:08;;;;;;;3.40;1.23;;;10.40;99.90;;;;;;4897377;29;20678;-74
2023/12/16 14:51:38;;;;;;;6.80;1.60;;;10.30;99.90;;;;;;4897397;29;20211;-73
2023/12/16 14:54:05;;;;;;;6.83;2.00;;;10.30;99.90;;;;;;4897768;29;20589;-74
2023/12/16 14:56:32;;;;;;;7.40;1.60;;;10.30;99.90;;;;;;4897446;29;20203;-73
2023/12/16 14:59:00;;;;;;;8.10;1.50;;;10.40;99.90;;;;;;4897199;29;20646;-73
2023/12/16 15:01:28;;;;;;;6.63;1.67;;;10.30;99.90;;;;;;4896732;29;20309;-74
2023/12/16 15:03:55;;;;;;;6.40;1.63;;;10.30;99.90;;;;;;4894202;29;20231;-74
2023/12/16 15:06:22;;;;;;;5.67;1.70;;;10.30;99.90;;;;;;4893610;29;20609;-74
2023/12/16 15:08:49;;;;;;;7.00;2.47;;;10.30;99.90;;;;;;4896906;29;20688;-74
2023/12/16 15:11:16;;;;;;;7.83;2.87;;;10.30;99.90;;;;;;4897230;29;20615;-74
2023/12/16 15:13:44;;;;;;;5.90;2.17;;;10.20;99.90;;;;;;4892868;29;20240;-74
2023/12/16 15:16:12;;;;;;;9.23;2.20;;;10.20;99.90;;;;;;4890139;29;20215;-74
2023/12/16 15:18:40;;;;;;;5.50;2.20;;;10.10;99.90;;;;;;4896666;29;20301;-74
2023/12/16 15:21:07;;;;;;;10.13;2.60;;;10.10;99.90;;;;;;4896961;29;20217;-74
2023/12/16 15:23:34;;;;;;;9.60;2.40;;;10.10;99.90;;;;;;4896583;29;20594;-74
2023/12/16 15:26:01;;;;;;;7.33;2.30;;;10.30;99.90;;;;;;4896508;29;20281;-73
2023/12/16 15:28:29;;;;;;;3.23;1.43;;;10.30;99.90;;;;;;4897199;29;20207;-74
2023/12/16 15:30:58;;;;;;;6.03;1.73;;;10.30;99.90;;;;;;4896983;29;20219;-74
2023/12/16 15:33:27;;;;;;;6.17;1.80;;;10.20;99.90;;;;;;4896589;29;20599;-74
2023/12/16 15:35:54;;;;;;;7.23;1.77;;;10.20;99.90;;;;;;4893266;29;20321;-73
2023/12/16 15:38:21;;;;;;;6.63;2.27;;;10.20;99.90;;;;;;4896547;29;20210;-74
2023/12/16 15:40:48;;;;;;;5.17;1.63;;;10.30;99.90;;;;;;4896701;29;20210;-73
2023/12/16 15:43:15;;;;;;;5.03;1.50;;;10.30;99.90;;;;;;4896638;29;20211;-74
2023/12/16 15:45:42;;;;;;;5.60;1.03;;;10.10;99.90;;;;;;4896539;29;20285;-74
2023/12/16 15:48:09;;;;;;;14.73;3.53;;;10.20;99.90;;;;;;4894450;29;20305;-74
2023/12/16 15:50:37;;;;;;;7.00;1.73;;;10.10;99.90;;;;;;4896941;29;20258;-74
2023/12/16 15:53:04;;;;;;;6.90;1.70;;;10.10;99.90;;;;;;4896943;29;20638;-73
2023/12/16 15:55:31;;;;;;;4.67;1.53;;;10.00;99.90;;;;;;4896906;29;20603;-73
2023/12/16 15:57:58;;;;;;;3.10;1.50;;;10.10;99.90;;;;;;4896516;29;20214;-74
2023/12/16 16:00:27;;;;;;;5.40;2.10;;;10.00;99.90;;;;;;4897236;29;20210;-73
2023/12/16 16:02:55;;;;;;;3.37;1.43;;;10.00;99.90;;;;;;4896880;29;20282;-73
2023/12/16 16:05:22;;;;;;;5.90;1.33;;;9.90;99.90;;;;;;4884024;29;20237;-73
2023/12/16 16:07:51;;;;;;;3.87;1.43;;;10.00;99.90;;;;;;4884794;29;20254;-74
2023/12/16 16:10:18;;;;;;;3.37;1.60;;;9.90;99.90;;;;;;4878672;29;20207;-73
2023/12/16 16:12:45;;;;;;;4.73;1.93;;;9.90;99.90;;;;;;4879688;29;20211;-73
2023/12/16 16:15:12;;;;;;;4.73;1.33;;;10.00;99.90;;;;;;4881009;29;20262;-74
2023/12/16 16:17:39;;;;;;;2.83;1.13;;;10.10;99.90;;;;;;4889788;29;20254;-74
2023/12/16 16:20:08;;;;;;;5.77;1.70;;;10.00;99.90;;;;;;4880509;29;20696;-74
2023/12/16 16:22:35;;;;;;;6.30;1.37;;;10.10;99.90;;;;;;4892638;29;20214;-73
2023/12/16 16:25:04;;;;;;;4.90;2.00;;;10.00;99.90;;;;;;4890542;29;20223;-74
2023/12/16 16:27:31;;;;;;;3.13;2.17;;;10.10;99.90;;;;;;4896726;29;20242;-73
2023/12/16 16:29:58;;;;;;;5.43;1.43;;;10.10;99.90;;;;;;4893631;29;20331;-74
2023/12/16 16:32:25;;;;;;;5.70;1.60;;;10.10;99.90;;;;;;4885210;29;20202;-73
2023/12/16 16:34:53;;;;;;;2.73;1.87;;;10.10;99.90;;;;;;4894210;29;20337;-73
2023/12/16 16:37:20;;;;;;;5.57;1.83;;;10.10;99.90;;;;;;4879729;29;20215;-75
2023/12/16 16:39:47;;;;;;;3.67;1.63;;;10.10;99.90;;;;;;4883321;29;20302;-74
2023/12/16 16:42:15;;;;;;;4.23;1.37;;;10.20;99.90;;;;;;4881103;29;20215;-74
2023/12/16 16:44:42;;;;;;;5.87;2.07;;;10.10;99.90;;;;;;4881896;29;20707;-74
2023/12/16 16:47:10;;;;;;;6.07;1.67;;;10.20;99.90;;;;;;4881680;29;20809;-75
2023/12/16 16:49:37;;;;;;;5.93;2.40;;;10.20;99.90;;;;;;4884904;29;20651;-75
2023/12/16 16:52:05;;;;;;;3.80;1.47;;;10.30;99.90;;;;;;4900378;29;20681;-74
2023/12/16 16:54:32;;;;;;;8.07;2.10;;;10.30;99.90;;;;;;4900430;29;20246;-74
2023/12/16 16:56:59;;;;;;;5.23;1.77;;;10.30;99.90;;;;;;4900509;29;20215;-74
2023/12/16 16:59:27;;;;;;;8.30;1.60;;;10.20;99.90;;;;;;4900359;29;20234;-74
2023/12/16 17:01:54;;;;;;;7.43;1.37;;;10.30;99.90;;;;;;4900147;29;20578;-74
2023/12/16 17:04:22;;;;;;;5.77;1.70;;;10.20;99.90;;;;;;4900043;29;20290;-74
2023/12/16 17:06:48;;;;;;;6.80;1.93;;;10.30;99.90;;;;;;4900184;29;20250;-74
2023/12/16 17:09:16;;;;;;;3.47;1.50;;;10.20;99.90;;;;;;4900356;29;20234;-74
2023/12/16 17:11:43;;;;;;;5.27;1.93;;;10.30;99.90;;;;;;4900164;29;20213;-74
2023/12/16 17:14:10;;;;;;;5.43;2.10;;;10.30;99.90;;;;;;4900193;29;20760;-74
2023/12/16 17:16:38;;;;;;;3.73;1.87;;;10.30;99.90;;;;;;4900106;29;20674;-74
2023/12/16 17:19:06;;;;;;;3.93;1.37;;;10.30;99.90;;;;;;4895789;29;20206;-75
2023/12/16 17:21:33;;;;;;;4.87;1.93;;;10.30;99.90;;;;;;4900698;29;20611;-75
2023/12/16 17:24:00;;;;;;;4.30;1.50;;;10.20;99.90;;;;;;4899697;29;20289;-74
2023/12/16 17:26:27;;;;;;;2.90;1.90;;;10.30;99.90;;;;;;4915474;29;20233;-76
2023/12/16 17:28:55;;;;;;;9.00;1.87;;;10.40;99.90;;;;;;4912825;29;20685;-74
2023/12/16 17:31:25;;;;;;;5.23;1.60;;;10.40;99.90;;;;;;4899657;29;20261;-74
2023/12/16 17:33:53;;;;;;;5.93;1.73;;;10.40;99.90;;;;;;4899176;29;20597;-73
2023/12/16 17:36:20;;;;;;;10.80;2.27;;;10.30;99.90;;;;;;4899801;29;20214;-75
2023/12/16 17:38:47;;;;;;;6.37;2.00;;;10.20;99.90;;;;;;4911956;29;20294;-74
2023/12/16 17:41:15;;;;;;;3.50;1.70;;;10.20;99.90;;;;;;4899470;29;20203;-74
2023/12/16 17:43:42;;;;;;;2.80;2.00;;;10.20;99.90;;;;;;4895676;29;20681;-73
2023/12/16 17:46:09;;;;;;;4.90;1.77;;;10.20;99.90;;;;;;4897381;29;20329;-74
2023/12/16 17:48:36;;;;;;;5.00;2.07;;;10.20;99.90;;;;;;4897106;29;20266;-75
2023/12/16 17:51:05;;;;;;;4.27;2.10;;;10.20;99.90;;;;;;4897488;29;20226;-75
2023/12/16 17:53:32;;;;;;;6.17;1.97;;;10.10;99.90;;;;;;4897220;29;20653;-75
2023/12/16 17:56:01;;;;;;;3.03;1.70;;;10.10;99.90;;;;;;4897754;29;20403;-74
2023/12/16 17:58:28;;;;;;;7.63;2.13;;;10.20;99.90;;;;;;4896958;29;20214;-77
2023/12/16 18:00:55;;;;;;;4.80;1.70;;;10.10;99.90;;;;;;4896891;29;20297;-73
2023/12/16 18:03:22;;;;;;;3.47;1.83;;;10.00;99.90;;;;;;4897788;29;20670;-74
2023/12/16 18:05:49;;;;;;;4.07;1.90;;;10.00;99.90;;;;;;4897076;29;20237;-74
2023/12/16 18:08:17;;;;;;;5.97;2.07;;;10.00;99.90;;;;;;4897516;29;20273;-73
2023/12/16 18:10:44;;;;;;;4.47;1.93;;;10.00;99.90;;;;;;4897463;29;20206;-75
2023/12/16 18:13:12;;;;;;;3.10;1.77;;;10.00;99.90;;;;;;4897705;29;20206;-78
2023/12/16 18:15:41;;;;;;;3.27;2.03;;;9.90;99.90;;;;;;4898359;29;20317;-74
2023/12/16 18:18:08;;;;;;;5.37;1.87;;;9.90;99.90;;;;;;4897555;29;20271;-74
2023/12/16 18:20:35;;;;;;;7.70;1.80;;;10.00;99.90;;;;;;4897103;29;20215;-77
2023/12/16 18:23:02;;;;;;;9.07;2.07;;;9.90;99.90;;;;;;4898076;29;20214;-75
2023/12/16 18:25:32;;;;;;;3.37;1.53;;;9.80;99.90;;;;;;4896863;29;20316;-75
2023/12/16 18:28:01;;;;;;;4.67;2.17;;;9.80;99.90;;;;;;4897126;29;20306;-74
2023/12/16 18:30:28;;;;;;;5.10;1.97;;;9.90;99.90;;;;;;4896618;29;20293;-79
2023/12/16 18:32:55;;;;;;;3.00;1.83;;;9.90;99.90;;;;;;4892179;29;20245;-79
2023/12/16 18:35:22;;;;;;;7.57;2.00;;;9.90;99.90;;;;;;4897384;29;20230;-76
2023/12/16 18:37:49;;;;;;;3.67;2.07;;;10.00;99.90;;;;;;4897897;29;20210;-78
2023/12/16 18:40:18;;;;;;;4.17;2.67;;;9.90;99.90;;;;;;4899217;29;20216;-77
2023/12/16 18:42:47;;;;;;;11.73;2.97;;;9.90;99.90;;;;;;4900526;29;20714;-78
2023/12/16 18:45:14;;;;;;;5.37;2.10;;;10.00;99.90;;;;;;4904214;29;20670;-76
2023/12/16 18:47:41;;;;;;;4.20;1.90;;;10.00;99.90;;;;;;4908436;29;20241;-77
2023/12/16 18:50:08;;;;;;;7.07;2.33;;;9.90;99.90;;;;;;4900917;29;20415;-75
2023/12/16 18:52:35;;;;;;;4.57;2.00;;;9.90;99.90;;;;;;4899177;29;20750;-77
2023/12/16 18:55:02;;;;;;;5.57;2.43;;;9.90;99.90;;;;;;4899381;29;20678;-74
2023/12/16 18:57:30;;;;;;;6.97;2.67;;;10.00;99.90;;;;;;4902534;29;20752;-77
2023/12/16 18:59:58;;;;;;;4.00;2.23;;;9.90;99.90;;;;;;4899087;29;20210;-76
2023/12/16 19:02:26;;;;;;;4.97;2.33;;;9.80;99.90;;;;;;4894159;29;20536;-75
2023/12/16 19:04:53;;;;;;;4.13;2.20;;;9.80;99.90;;;;;;4894859;29;20250;-75
2023/12/16 19:07:23;;;;;;;4.37;2.23;;;9.80;99.90;;;;;;4897121;29;20249;-73
2023/12/16 19:09:50;;;;;;;7.17;2.07;;;9.80;99.90;;;;;;4896880;29;20579;-72
2023/12/16 19:12:17;;;;;;;4.87;2.40;;;9.70;99.90;;;;;;4897484;29;20210;-75
2023/12/16 19:14:44;;;;;;;4.97;2.40;;;9.80;99.90;;;;;;4898269;29;20240;-76
2023/12/16 19:17:12;;;;;;;5.27;2.20;;;9.80;99.90;;;;;;4906887;29;20614;-73
2023/12/16 19:19:42;;;;;;;3.80;2.10;;;9.90;99.90;;;;;;4897467;29;20221;-73
2023/12/16 19:22:10;;;;;;;6.90;3.07;;;9.80;99.90;;;;;;4885733;29;20202;-73
2023/12/16 19:24:37;;;;;;;6.57;2.50;;;9.80;99.90;;;;;;4897831;29;20287;-74
2023/12/16 19:27:06;;;;;;;5.63;2.00;;;9.80;99.90;;;;;;4897869;29;20245;-74
2023/12/16 19:29:33;;;;;;;7.23;2.17;;;9.80;99.90;;;;;;4897273;29;20678;-74
2023/12/16 19:32:00;;;;;;;5.17;2.20;;;9.90;99.90;;;;;;4897665;29;20697;-74
2023/12/16 19:34:29;;;;;;;3.53;2.20;;;10.00;99.90;;;;;;4896915;29;20286;-77
2023/12/16 19:36:56;;;;;;;5.33;2.83;;;9.90;99.90;;;;;;4890442;29;20219;-74
2023/12/16 19:39:23;;;;;;;6.93;2.23;;;9.80;99.90;;;;;;4887691;29;20215;-74
2023/12/16 19:41:50;;;;;;;8.50;2.80;;;9.80;99.90;;;;;;4897440;29;20214;-73
2023/12/16 19:44:17;;;;;;;6.87;2.60;;;9.90;99.90;;;;;;4897441;29;20229;-76
2023/12/16 19:46:44;;;;;;;9.93;2.90;;;9.90;99.90;;;;;;4897611;29;20230;-76
2023/12/16 19:49:12;;;;;;;6.80;1.90;;;9.90;99.90;;;;;;4895964;29;20214;-76
2023/12/16 19:51:40;;;;;;;4.80;2.27;;;10.00;99.90;;;;;;4897282;29;20233;-76
2023/12/16 19:54:09;;;;;;;5.80;1.87;;;10.00;99.90;;;;;;4897609;29;20273;-76
2023/12/16 19:56:36;;;;;;;5.07;2.17;;;10.10;99.90;;;;;;4897178;29;20238;-74
2023/12/16 19:59:03;;;;;;;3.57;1.93;;;10.10;99.90;;;;;;4897448;29;20573;-76
2023/12/16 20:01:30;;;;;;;4.43;2.40;;;10.00;99.90;;;;;;4897080;29;20215;-74
2023/12/16 20:03:57;;;;;;;5.20;2.37;;;10.00;99.90;;;;;;4897132;29;20574;-76
2023/12/16 20:06:27;;;;;;;4.97;2.30;;;10.10;99.90;;;;;;4896953;29;20207;-76
2023/12/16 20:08:55;;;;;;;5.00;1.93;;;10.10;99.90;;;;;;4897021;29;20594;-74
2023/12/16 20:11:22;;;;;;;6.73;2.50;;;10.10;99.90;;;;;;4889625;29;20211;-74
2023/12/16 20:13:50;;;;;;;4.03;2.10;;;10.10;99.90;;;;;;4891165;29;20215;-74
2023/12/16 20:16:18;;;;;;;3.97;2.30;;;10.00;99.90;;;;;;4896970;29;20218;-75
2023/12/16 20:18:45;;;;;;;6.50;2.40;;;10.00;99.90;;;;;;4896871;29;20217;-75
2023/12/16 20:21:12;;;;;;;5.63;2.37;;;10.10;99.90;;;;;;4897472;29;20221;-75
2023/12/16 20:23:39;;;;;;;4.30;2.20;;;10.10;99.90;;;;;;4900766;29;20216;-74
2023/12/16 20:26:07;;;;;;;5.93;2.57;;;10.10;99.90;;;;;;4911215;29;20309;-74
2023/12/16 20:28:34;;;;;;;7.90;2.03;;;10.20;99.90;;;;;;4900292;29;20301;-74
2023/12/16 20:31:01;;;;;;;2.50;1.77;;;10.20;99.90;;;;;;4900274;29;20270;-74
2023/12/16 20:33:28;;;;;;;8.83;2.37;;;10.10;99.90;;;;;;4900102;29;20253;-74
2023/12/16 20:35:55;;;;;;;3.90;2.10;;;10.10;99.90;;;;;;4900567;29;20272;-74
2023/12/16 20:41:07;;;;;;;5.73;1.97;;;10.10;99.90;;;;;;4900563;29;20739;-75
2023/12/16 20:43:34;;;;;;;4.87;2.70;;;10.10;99.90;;;;;;4899844;29;20210;-75
2023/12/16 20:46:02;;;;;;;5.37;3.20;;;10.10;99.90;;;;;;4888141;29;20211;-75
2023/12/16 20:48:29;;;;;;;4.47;2.00;;;10.10;99.90;;;;;;4899916;29;20713;-75
2023/12/16 20:50:57;;;;;;;5.30;2.30;;;10.20;99.90;;;;;;4900361;29;20685;-75
2023/12/16 20:53:24;;;;;;;6.07;2.60;;;10.20;99.90;;;;;;4900501;29;20210;-77
2023/12/16 20:55:51;;;;;;;5.73;2.40;;;10.30;99.90;;;;;;4900310;29;20282;-76
2023/12/16 20:58:20;;;;;;;6.77;2.40;;;10.40;99.90;;;;;;4900952;29;20726;-77
2023/12/16 21:00:47;;;;;;;4.10;2.20;;;10.40;99.90;;;;;;4902666;29;20274;-76
2023/12/16 21:03:14;;;;;;;6.57;2.37;;;10.40;99.90;;;;;;4889189;29;20206;-76
2023/12/16 21:05:41;;;;;;;5.07;2.27;;;10.40;99.90;;;;;;4899696;29;20226;-76
2023/12/16 21:08:08;;;;;;;5.30;2.37;;;10.30;99.90;;;;;;4888433;29;20235;-76
2023/12/16 21:10:35;;;;;;;5.20;2.40;;;10.20;99.90;;;;;;4899689;29;20206;-76
2023/12/16 21:13:08;;;;;;;8.00;2.37;;;10.30;99.90;;;;;;4900031;29;20217;-76
2023/12/16 21:15:36;;;;;;;7.40;2.53;;;10.30;99.90;;;;;;4899999;29;20237;-76
2023/12/16 21:18:03;;;;;;;3.60;2.40;;;10.30;99.90;;;;;;4898704;29;20257;-76
2023/12/16 21:20:30;;;;;;;4.37;2.60;;;10.30;99.90;;;;;;4887773;29;20662;-75
2023/12/16 21:22:57;;;;;;;3.47;2.03;;;10.20;99.90;;;;;;4899864;29;20217;-76
2023/12/16 21:25:24;;;;;;;4.90;2.40;;;10.20;99.90;;;;;;4899457;29;20234;-76
2023/12/16 21:27:51;;;;;;;6.40;2.60;;;10.30;99.90;;;;;;4899846;29;20605;-76
2023/12/16 21:30:22;;;;;;;4.07;2.73;;;10.30;99.90;;;;;;4899786;29;20266;-75
2023/12/16 21:32:51;;;;;;;6.43;3.10;;;10.30;99.90;;;;;;4899541;29;20266;-75
2023/12/16 21:35:18;;;;;;;5.63;2.67;;;10.30;99.90;;;;;;4898009;29;20279;-76
2023/12/16 21:37:45;;;;;;;6.10;3.00;;;10.20;99.90;;;;;;4899514;29;20221;-76
2023/12/16 21:40:12;;;;;;;6.20;2.63;;;10.20;99.90;;;;;;4898394;29;20226;-75
2023/12/16 21:42:39;;;;;;;6.27;3.40;;;10.30;99.90;;;;;;4899478;29;20206;-76